Terminal Aerodrome Forecast
Issued by NWS Shreveport, LA

Home | Current Version | Previous Version | Text Only | Print | Product List | Glossary On
Versions: 1 2 3 4 5 6 7 8 9 10 11 12
000
FTUS44 KSHV 312300 RRA
TAFELD
TAF
KELD 312344Z 0100/0124 05006KT 6SM -RA BR SCT030 OVC045
      TEMPO 0101/0105 4SM SHRA BR OVC030
     FM010500 04004KT 4SM -SHRA BR OVC025
     FM010800 04003KT 3SM -SHRA BR OVC015
     FM011200 05004KT 4SM -RA BR OVC010
     FM011700 06006KT P6SM OVC015
     FM012100 06006KT P6SM OVC023=

USA.gov is the U.S. government's official web portal to all federal, state and local government web resources and services.